sensor_id;sensor_type;location;lat;lon;timestamp;P1;durP1;ratioP1;P2;durP2;ratioP2
30617;SDS011;17384;51.214;9.202;2022-10-16T00:01:04;4.70;;;3.40;;
30617;SDS011;17384;51.214;9.202;2022-10-16T00:03:29;5.72;;;3.00;;
30617;SDS011;17384;51.214;9.202;2022-10-16T00:05:58;3.80;;;3.40;;
30617;SDS011;17384;51.214;9.202;2022-10-16T00:08:23;5.25;;;3.20;;
30617;SDS011;17384;51.214;9.202;2022-10-16T00:10:48;4.83;;;3.27;;
30617;SDS011;17384;51.214;9.202;2022-10-16T00:13:14;5.72;;;3.58;;
30617;SDS011;17384;51.214;9.202;2022-10-16T00:15:39;5.85;;;3.97;;
30617;SDS011;17384;51.214;9.202;2022-10-16T00:18:04;6.47;;;4.05;;
30617;SDS011;17384;51.214;9.202;2022-10-16T00:20:30;12.07;;;5.70;;
30617;SDS011;17384;51.214;9.202;2022-10-16T00:22:58;8.05;;;4.10;;
30617;SDS011;17384;51.214;9.202;2022-10-16T00:25:23;6.65;;;4.63;;
30617;SDS011;17384;51.214;9.202;2022-10-16T00:27:49;7.63;;;4.55;;
30617;SDS011;17384;51.214;9.202;2022-10-16T00:30:14;6.22;;;3.85;;
30617;SDS011;17384;51.214;9.202;2022-10-16T00:32:39;4.88;;;4.00;;
30617;SDS011;17384;51.214;9.202;2022-10-16T00:35:05;9.98;;;4.10;;
30617;SDS011;17384;51.214;9.202;2022-10-16T00:37:30;10.68;;;3.78;;
30617;SDS011;17384;51.214;9.202;2022-10-16T00:39:55;6.00;;;3.80;;
30617;SDS011;17384;51.214;9.202;2022-10-16T00:42:21;12.45;;;4.50;;
30617;SDS011;17384;51.214;9.202;2022-10-16T00:44:54;5.13;;;3.85;;
30617;SDS011;17384;51.214;9.202;2022-10-16T00:49:50;5.68;;;4.40;;
30617;SDS011;17384;51.214;9.202;2022-10-16T00:52:16;5.88;;;4.32;;
30617;SDS011;17384;51.214;9.202;2022-10-16T00:54:42;5.93;;;4.57;;
30617;SDS011;17384;51.214;9.202;2022-10-16T00:57:08;12.73;;;5.32;;
30617;SDS011;17384;51.214;9.202;2022-10-16T00:59:34;9.60;;;4.80;;
30617;SDS011;17384;51.214;9.202;2022-10-16T01:02:01;6.70;;;4.30;;
30617;SDS011;17384;51.214;9.202;2022-10-16T01:04:28;6.47;;;4.38;;
30617;SDS011;17384;51.214;9.202;2022-10-16T01:12:33;6.80;;;4.25;;
30617;SDS011;17384;51.214;9.202;2022-10-16T01:15:11;8.40;;;4.25;;
30617;SDS011;17384;51.214;9.202;2022-10-16T01:17:45;9.10;;;4.05;;
30617;SDS011;17384;51.214;9.202;2022-10-16T01:20:20;4.18;;;3.63;;
30617;SDS011;17384;51.214;9.202;2022-10-16T01:25:22;4.53;;;3.67;;
30617;SDS011;17384;51.214;9.202;2022-10-16T01:27:50;6.93;;;4.43;;
30617;SDS011;17384;51.214;9.202;2022-10-16T01:30:48;4.85;;;3.55;;
30617;SDS011;17384;51.214;9.202;2022-10-16T01:33:28;6.38;;;4.53;;
30617;SDS011;17384;51.214;9.202;2022-10-16T01:35:56;9.93;;;3.92;;
30617;SDS011;17384;51.214;9.202;2022-10-16T01:40:53;4.15;;;3.75;;
30617;SDS011;17384;51.214;9.202;2022-10-16T01:43:24;5.15;;;4.40;;
30617;SDS011;17384;51.214;9.202;2022-10-16T01:45:50;6.18;;;4.07;;
30617;SDS011;17384;51.214;9.202;2022-10-16T01:48:17;9.73;;;4.53;;
30617;SDS011;17384;51.214;9.202;2022-10-16T01:50:43;7.13;;;4.10;;
30617;SDS011;17384;51.214;9.202;2022-10-16T01:53:10;4.75;;;4.25;;
30617;SDS011;17384;51.214;9.202;2022-10-16T01:55:37;7.35;;;4.43;;
30617;SDS011;17384;51.214;9.202;2022-10-16T01:58:06;4.30;;;3.90;;
30617;SDS011;17384;51.214;9.202;2022-10-16T02:00:33;5.88;;;5.03;;
30617;SDS011;17384;51.214;9.202;2022-10-16T02:02:58;7.15;;;4.47;;
30617;SDS011;17384;51.214;9.202;2022-10-16T02:07:58;4.63;;;4.18;;
30617;SDS011;17384;51.214;9.202;2022-10-16T02:10:24;7.57;;;4.35;;
30617;SDS011;17384;51.214;9.202;2022-10-16T02:13:01;4.93;;;4.43;;
30617;SDS011;17384;51.214;9.202;2022-10-16T02:15:28;11.88;;;6.00;;
30617;SDS011;17384;51.214;9.202;2022-10-16T02:17:53;5.80;;;4.85;;
30617;SDS011;17384;51.214;9.202;2022-10-16T02:20:19;7.95;;;4.50;;
30617;SDS011;17384;51.214;9.202;2022-10-16T02:22:46;7.35;;;4.57;;
30617;SDS011;17384;51.214;9.202;2022-10-16T02:25:27;4.63;;;4.00;;
30617;SDS011;17384;51.214;9.202;2022-10-16T02:28:02;5.60;;;4.03;;
30617;SDS011;17384;51.214;9.202;2022-10-16T02:33:00;5.90;;;5.10;;
30617;SDS011;17384;51.214;9.202;2022-10-16T02:35:26;5.57;;;3.97;;
30617;SDS011;17384;51.214;9.202;2022-10-16T02:37:52;6.70;;;4.30;;
30617;SDS011;17384;51.214;9.202;2022-10-16T02:40:18;6.60;;;4.03;;
30617;SDS011;17384;51.214;9.202;2022-10-16T02:42:43;7.35;;;4.55;;
30617;SDS011;17384;51.214;9.202;2022-10-16T02:45:09;6.65;;;4.25;;
30617;SDS011;17384;51.214;9.202;2022-10-16T02:47:35;8.90;;;3.78;;
30617;SDS011;17384;51.214;9.202;2022-10-16T02:50:00;6.10;;;4.20;;
30617;SDS011;17384;51.214;9.202;2022-10-16T02:52:25;5.82;;;3.40;;
30617;SDS011;17384;51.214;9.202;2022-10-16T02:54:51;4.60;;;3.22;;
30617;SDS011;17384;51.214;9.202;2022-10-16T02:57:16;8.57;;;3.45;;
30617;SDS011;17384;51.214;9.202;2022-10-16T02:59:42;6.50;;;3.22;;
30617;SDS011;17384;51.214;9.202;2022-10-16T03:02:07;5.05;;;3.05;;
30617;SDS011;17384;51.214;9.202;2022-10-16T03:04:32;5.80;;;3.55;;
30617;SDS011;17384;51.214;9.202;2022-10-16T03:06:58;5.50;;;3.22;;
30617;SDS011;17384;51.214;9.202;2022-10-16T03:09:23;6.57;;;3.20;;
30617;SDS011;17384;51.214;9.202;2022-10-16T03:11:48;5.07;;;2.70;;
30617;SDS011;17384;51.214;9.202;2022-10-16T03:14:13;3.25;;;2.83;;
30617;SDS011;17384;51.214;9.202;2022-10-16T03:16:39;4.22;;;2.67;;
30617;SDS011;17384;51.214;9.202;2022-10-16T03:19:04;3.10;;;2.60;;
30617;SDS011;17384;51.214;9.202;2022-10-16T03:21:29;6.47;;;3.00;;
30617;SDS011;17384;51.214;9.202;2022-10-16T03:23:55;8.98;;;3.40;;
30617;SDS011;17384;51.214;9.202;2022-10-16T03:26:20;6.05;;;2.90;;
30617;SDS011;17384;51.214;9.202;2022-10-16T03:28:45;7.97;;;3.20;;
30617;SDS011;17384;51.214;9.202;2022-10-16T03:31:12;6.13;;;3.20;;
30617;SDS011;17384;51.214;9.202;2022-10-16T03:33:37;10.95;;;3.17;;
30617;SDS011;17384;51.214;9.202;2022-10-16T03:36:02;9.15;;;2.92;;
30617;SDS011;17384;51.214;9.202;2022-10-16T03:38:28;3.92;;;2.83;;
30617;SDS011;17384;51.214;9.202;2022-10-16T03:40:53;4.93;;;2.47;;
30617;SDS011;17384;51.214;9.202;2022-10-16T03:43:18;5.23;;;2.40;;
30617;SDS011;17384;51.214;9.202;2022-10-16T03:45:43;3.38;;;2.67;;
30617;SDS011;17384;51.214;9.202;2022-10-16T03:48:09;7.87;;;2.43;;
30617;SDS011;17384;51.214;9.202;2022-10-16T03:50:34;3.78;;;1.98;;
30617;SDS011;17384;51.214;9.202;2022-10-16T03:52:59;3.08;;;2.47;;
30617;SDS011;17384;51.214;9.202;2022-10-16T03:55:25;4.00;;;2.43;;
30617;SDS011;17384;51.214;9.202;2022-10-16T03:57:50;3.07;;;2.70;;
30617;SDS011;17384;51.214;9.202;2022-10-16T04:00:15;2.75;;;2.42;;
30617;SDS011;17384;51.214;9.202;2022-10-16T04:02:40;4.18;;;2.42;;
30617;SDS011;17384;51.214;9.202;2022-10-16T04:05:06;2.97;;;2.78;;
30617;SDS011;17384;51.214;9.202;2022-10-16T04:07:31;8.13;;;2.88;;
30617;SDS011;17384;51.214;9.202;2022-10-16T04:09:57;4.68;;;2.70;;
30617;SDS011;17384;51.214;9.202;2022-10-16T04:12:23;8.68;;;2.83;;
30617;SDS011;17384;51.214;9.202;2022-10-16T04:14:49;4.20;;;3.25;;
30617;SDS011;17384;51.214;9.202;2022-10-16T04:17:14;6.18;;;2.63;;
30617;SDS011;17384;51.214;9.202;2022-10-16T04:19:39;3.70;;;2.92;;
30617;SDS011;17384;51.214;9.202;2022-10-16T04:22:05;7.23;;;4.17;;
30617;SDS011;17384;51.214;9.202;2022-10-16T04:24:30;5.68;;;3.45;;
30617;SDS011;17384;51.214;9.202;2022-10-16T04:26:55;6.10;;;3.28;;
30617;SDS011;17384;51.214;9.202;2022-10-16T04:29:21;3.70;;;3.40;;
30617;SDS011;17384;51.214;9.202;2022-10-16T04:31:46;3.90;;;3.55;;
30617;SDS011;17384;51.214;9.202;2022-10-16T04:34:11;3.40;;;3.10;;
30617;SDS011;17384;51.214;9.202;2022-10-16T04:36:37;9.30;;;3.30;;
30617;SDS011;17384;51.214;9.202;2022-10-16T04:39:02;8.70;;;3.10;;
30617;SDS011;17384;51.214;9.202;2022-10-16T04:41:27;4.57;;;2.60;;
30617;SDS011;17384;51.214;9.202;2022-10-16T04:43:52;3.80;;;3.40;;
30617;SDS011;17384;51.214;9.202;2022-10-16T04:46:18;3.47;;;3.17;;
30617;SDS011;17384;51.214;9.202;2022-10-16T04:48:43;3.92;;;3.63;;
30617;SDS011;17384;51.214;9.202;2022-10-16T04:51:08;4.10;;;3.50;;
30617;SDS011;17384;51.214;9.202;2022-10-16T04:53:33;6.10;;;3.53;;
30617;SDS011;17384;51.214;9.202;2022-10-16T04:55:59;6.10;;;3.63;;
30617;SDS011;17384;51.214;9.202;2022-10-16T04:58:24;5.18;;;3.95;;
30617;SDS011;17384;51.214;9.202;2022-10-16T05:00:49;11.48;;;4.40;;
30617;SDS011;17384;51.214;9.202;2022-10-16T05:03:15;5.00;;;4.50;;
30617;SDS011;17384;51.214;9.202;2022-10-16T05:05:43;9.77;;;4.23;;
30617;SDS011;17384;51.214;9.202;2022-10-16T05:08:09;4.93;;;3.75;;
30617;SDS011;17384;51.214;9.202;2022-10-16T05:10:35;9.68;;;8.63;;
30617;SDS011;17384;51.214;9.202;2022-10-16T05:13:00;4.57;;;4.18;;
30617;SDS011;17384;51.214;9.202;2022-10-16T05:15:25;11.23;;;5.57;;
30617;SDS011;17384;51.214;9.202;2022-10-16T05:17:54;5.53;;;5.03;;
30617;SDS011;17384;51.214;9.202;2022-10-16T05:20:19;5.95;;;4.80;;
30617;SDS011;17384;51.214;9.202;2022-10-16T05:22:45;7.55;;;5.10;;
30617;SDS011;17384;51.214;9.202;2022-10-16T05:25:10;5.40;;;4.90;;
30617;SDS011;17384;51.214;9.202;2022-10-16T05:27:35;11.60;;;4.55;;
30617;SDS011;17384;51.214;9.202;2022-10-16T05:30:01;11.30;;;2.92;;
30617;SDS011;17384;51.214;9.202;2022-10-16T05:32:26;4.20;;;2.60;;
30617;SDS011;17384;51.214;9.202;2022-10-16T05:34:51;3.90;;;2.57;;
30617;SDS011;17384;51.214;9.202;2022-10-16T05:37:17;4.65;;;3.03;;
30617;SDS011;17384;51.214;9.202;2022-10-16T05:39:42;3.83;;;2.87;;
30617;SDS011;17384;51.214;9.202;2022-10-16T05:42:07;3.60;;;2.53;;
30617;SDS011;17384;51.214;9.202;2022-10-16T05:44:32;4.30;;;2.63;;
30617;SDS011;17384;51.214;9.202;2022-10-16T05:46:58;7.67;;;2.83;;
30617;SDS011;17384;51.214;9.202;2022-10-16T05:49:23;2.60;;;2.40;;
30617;SDS011;17384;51.214;9.202;2022-10-16T05:51:48;4.18;;;2.30;;
30617;SDS011;17384;51.214;9.202;2022-10-16T05:54:14;2.70;;;2.43;;
30617;SDS011;17384;51.214;9.202;2022-10-16T05:56:39;4.93;;;2.25;;
30617;SDS011;17384;51.214;9.202;2022-10-16T05:59:04;2.40;;;2.20;;
30617;SDS011;17384;51.214;9.202;2022-10-16T06:01:30;6.28;;;2.80;;
30617;SDS011;17384;51.214;9.202;2022-10-16T06:03:56;5.32;;;2.28;;
30617;SDS011;17384;51.214;9.202;2022-10-16T06:06:22;2.40;;;2.20;;
30617;SDS011;17384;51.214;9.202;2022-10-16T06:08:48;2.78;;;2.08;;
30617;SDS011;17384;51.214;9.202;2022-10-16T06:11:15;1.88;;;1.77;;
30617;SDS011;17384;51.214;9.202;2022-10-16T06:13:40;5.85;;;1.48;;
30617;SDS011;17384;51.214;9.202;2022-10-16T06:16:11;2.70;;;1.30;;
30617;SDS011;17384;51.214;9.202;2022-10-16T06:18:37;4.53;;;1.63;;
30617;SDS011;17384;51.214;9.202;2022-10-16T06:21:11;3.70;;;1.77;;
30617;SDS011;17384;51.214;9.202;2022-10-16T06:23:37;4.07;;;1.25;;
30617;SDS011;17384;51.214;9.202;2022-10-16T06:26:06;5.22;;;1.77;;
30617;SDS011;17384;51.214;9.202;2022-10-16T06:28:31;1.00;;;0.90;;
30617;SDS011;17384;51.214;9.202;2022-10-16T06:31:00;1.42;;;1.05;;
30617;SDS011;17384;51.214;9.202;2022-10-16T06:33:26;0.90;;;0.90;;
30617;SDS011;17384;51.214;9.202;2022-10-16T06:35:51;2.50;;;1.48;;
30617;SDS011;17384;51.214;9.202;2022-10-16T06:38:17;3.30;;;1.00;;
30617;SDS011;17384;51.214;9.202;2022-10-16T06:40:42;1.17;;;0.90;;
30617;SDS011;17384;51.214;9.202;2022-10-16T06:43:07;3.28;;;1.15;;
30617;SDS011;17384;51.214;9.202;2022-10-16T06:45:33;4.00;;;1.03;;
30617;SDS011;17384;51.214;9.202;2022-10-16T06:47:58;1.15;;;0.70;;
30617;SDS011;17384;51.214;9.202;2022-10-16T06:50:23;8.38;;;0.80;;
30617;SDS011;17384;51.214;9.202;2022-10-16T06:52:49;2.88;;;0.88;;
30617;SDS011;17384;51.214;9.202;2022-10-16T06:55:14;1.03;;;0.83;;
30617;SDS011;17384;51.214;9.202;2022-10-16T06:57:40;5.38;;;0.85;;
30617;SDS011;17384;51.214;9.202;2022-10-16T07:00:05;1.30;;;0.60;;
30617;SDS011;17384;51.214;9.202;2022-10-16T07:02:31;2.05;;;0.80;;
30617;SDS011;17384;51.214;9.202;2022-10-16T07:04:56;1.83;;;0.93;;
30617;SDS011;17384;51.214;9.202;2022-10-16T07:07:22;3.03;;;0.95;;
30617;SDS011;17384;51.214;9.202;2022-10-16T07:09:49;3.38;;;0.98;;
30617;SDS011;17384;51.214;9.202;2022-10-16T07:12:15;0.95;;;0.68;;
30617;SDS011;17384;51.214;9.202;2022-10-16T07:14:40;4.80;;;1.00;;
30617;SDS011;17384;51.214;9.202;2022-10-16T07:17:05;0.60;;;0.60;;
30617;SDS011;17384;51.214;9.202;2022-10-16T07:19:30;2.28;;;0.77;;
30617;SDS011;17384;51.214;9.202;2022-10-16T07:21:56;1.25;;;0.60;;
30617;SDS011;17384;51.214;9.202;2022-10-16T07:24:22;4.57;;;0.70;;
30617;SDS011;17384;51.214;9.202;2022-10-16T07:26:47;1.95;;;0.60;;
30617;SDS011;17384;51.214;9.202;2022-10-16T07:29:16;1.27;;;0.73;;
30617;SDS011;17384;51.214;9.202;2022-10-16T07:31:42;0.68;;;0.63;;
30617;SDS011;17384;51.214;9.202;2022-10-16T07:34:10;0.50;;;0.50;;
30617;SDS011;17384;51.214;9.202;2022-10-16T07:36:36;1.40;;;0.60;;
30617;SDS011;17384;51.214;9.202;2022-10-16T07:39:01;1.85;;;0.50;;
30617;SDS011;17384;51.214;9.202;2022-10-16T07:41:27;1.85;;;0.75;;
30617;SDS011;17384;51.214;9.202;2022-10-16T07:43:53;1.48;;;0.60;;
30617;SDS011;17384;51.214;9.202;2022-10-16T07:46:19;1.52;;;0.70;;
30617;SDS011;17384;51.214;9.202;2022-10-16T07:48:45;0.60;;;0.60;;
30617;SDS011;17384;51.214;9.202;2022-10-16T07:51:12;0.70;;;0.47;;
30617;SDS011;17384;51.214;9.202;2022-10-16T07:53:38;0.63;;;0.63;;
30617;SDS011;17384;51.214;9.202;2022-10-16T07:56:04;3.60;;;0.67;;
30617;SDS011;17384;51.214;9.202;2022-10-16T07:58:30;4.75;;;0.60;;
30617;SDS011;17384;51.214;9.202;2022-10-16T08:00:56;2.05;;;0.50;;
30617;SDS011;17384;51.214;9.202;2022-10-16T08:03:22;2.78;;;0.70;;
30617;SDS011;17384;51.214;9.202;2022-10-16T08:05:47;5.45;;;0.60;;
30617;SDS011;17384;51.214;9.202;2022-10-16T08:08:13;5.90;;;0.73;;
30617;SDS011;17384;51.214;9.202;2022-10-16T08:10:38;2.67;;;0.65;;
30617;SDS011;17384;51.214;9.202;2022-10-16T08:13:04;1.17;;;0.50;;
30617;SDS011;17384;51.214;9.202;2022-10-16T08:15:29;2.47;;;0.90;;
30617;SDS011;17384;51.214;9.202;2022-10-16T08:17:55;1.90;;;0.70;;
30617;SDS011;17384;51.214;9.202;2022-10-16T08:20:21;3.28;;;0.80;;
30617;SDS011;17384;51.214;9.202;2022-10-16T08:22:46;0.68;;;0.60;;
30617;SDS011;17384;51.214;9.202;2022-10-16T08:25:11;1.73;;;0.90;;
30617;SDS011;17384;51.214;9.202;2022-10-16T08:27:36;0.60;;;0.60;;
30617;SDS011;17384;51.214;9.202;2022-10-16T08:30:02;4.30;;;0.60;;
30617;SDS011;17384;51.214;9.202;2022-10-16T08:32:27;0.80;;;0.70;;
30617;SDS011;17384;51.214;9.202;2022-10-16T08:34:52;1.53;;;0.60;;
30617;SDS011;17384;51.214;9.202;2022-10-16T08:37:18;1.55;;;0.70;;
30617;SDS011;17384;51.214;9.202;2022-10-16T08:39:43;7.13;;;0.70;;
30617;SDS011;17384;51.214;9.202;2022-10-16T08:50:13;4.10;;;0.80;;
30617;SDS011;17384;51.214;9.202;2022-10-16T08:52:39;1.45;;;0.70;;
30617;SDS011;17384;51.214;9.202;2022-10-16T08:55:05;7.15;;;0.65;;
30617;SDS011;17384;51.214;9.202;2022-10-16T08:57:31;1.00;;;0.70;;
30617;SDS011;17384;51.214;9.202;2022-10-16T09:00:08;0.60;;;0.60;;
30617;SDS011;17384;51.214;9.202;2022-10-16T09:03:00;1.10;;;0.68;;
30617;SDS011;17384;51.214;9.202;2022-10-16T09:10:28;0.63;;;0.63;;
30617;SDS011;17384;51.214;9.202;2022-10-16T09:15:58;4.90;;;0.90;;
30617;SDS011;17384;51.214;9.202;2022-10-16T09:18:32;1.27;;;0.80;;
30617;SDS011;17384;51.214;9.202;2022-10-16T09:23:37;2.67;;;0.70;;
30617;SDS011;17384;51.214;9.202;2022-10-16T09:26:03;1.05;;;0.80;;
30617;SDS011;17384;51.214;9.202;2022-10-16T09:28:29;2.70;;;0.98;;
30617;SDS011;17384;51.214;9.202;2022-10-16T09:30:54;5.23;;;0.70;;
30617;SDS011;17384;51.214;9.202;2022-10-16T09:33:20;2.00;;;1.00;;
30617;SDS011;17384;51.214;9.202;2022-10-16T09:35:56;0.88;;;0.52;;
30617;SDS011;17384;51.214;9.202;2022-10-16T09:40:52;5.30;;;0.60;;
30617;SDS011;17384;51.214;9.202;2022-10-16T09:48:44;2.50;;;0.77;;
30617;SDS011;17384;51.214;9.202;2022-10-16T09:51:19;0.93;;;0.60;;
30617;SDS011;17384;51.214;9.202;2022-10-16T09:56:11;0.43;;;0.40;;
30617;SDS011;17384;51.214;9.202;2022-10-16T09:58:41;1.60;;;0.70;;
30617;SDS011;17384;51.214;9.202;2022-10-16T10:01:11;3.85;;;0.82;;
30617;SDS011;17384;51.214;9.202;2022-10-16T10:03:39;3.67;;;0.70;;
30617;SDS011;17384;51.214;9.202;2022-10-16T10:06:40;17.02;;;1.15;;
30617;SDS011;17384;51.214;9.202;2022-10-16T10:08:57;3.10;;;0.52;;
30617;SDS011;17384;51.214;9.202;2022-10-16T10:14:22;2.83;;;0.50;;
30617;SDS011;17384;51.214;9.202;2022-10-16T10:16:48;0.60;;;0.50;;
30617;SDS011;17384;51.214;9.202;2022-10-16T10:19:20;1.45;;;0.70;;
30617;SDS011;17384;51.214;9.202;2022-10-16T10:21:46;0.73;;;0.50;;
30617;SDS011;17384;51.214;9.202;2022-10-16T10:24:12;4.55;;;0.65;;
30617;SDS011;17384;51.214;9.202;2022-10-16T10:26:38;0.73;;;0.40;;
30617;SDS011;17384;51.214;9.202;2022-10-16T10:29:30;0.63;;;0.32;;
30617;SDS011;17384;51.214;9.202;2022-10-16T10:40:07;1.70;;;0.45;;
30617;SDS011;17384;51.214;9.202;2022-10-16T10:42:41;1.02;;;0.45;;
30617;SDS011;17384;51.214;9.202;2022-10-16T10:45:22;3.55;;;0.32;;
30617;SDS011;17384;51.214;9.202;2022-10-16T10:48:06;2.60;;;0.63;;
30617;SDS011;17384;51.214;9.202;2022-10-16T10:58:17;0.45;;;0.30;;
30617;SDS011;17384;51.214;9.202;2022-10-16T11:03:22;3.13;;;0.75;;
30617;SDS011;17384;51.214;9.202;2022-10-16T11:06:08;0.80;;;0.47;;
30617;SDS011;17384;51.214;9.202;2022-10-16T11:08:38;2.20;;;0.50;;
30617;SDS011;17384;51.214;9.202;2022-10-16T11:11:10;2.60;;;0.35;;
30617;SDS011;17384;51.214;9.202;2022-10-16T11:13:53;4.03;;;0.50;;
30617;SDS011;17384;51.214;9.202;2022-10-16T11:16:22;1.85;;;0.63;;
30617;SDS011;17384;51.214;9.202;2022-10-16T11:21:14;0.90;;;0.40;;
30617;SDS011;17384;51.214;9.202;2022-10-16T11:26:09;0.88;;;0.60;;
30617;SDS011;17384;51.214;9.202;2022-10-16T11:28:37;2.10;;;0.40;;
30617;SDS011;17384;51.214;9.202;2022-10-16T11:31:10;0.98;;;0.70;;
30617;SDS011;17384;51.214;9.202;2022-10-16T11:33:44;1.27;;;0.50;;
30617;SDS011;17384;51.214;9.202;2022-10-16T11:36:12;1.60;;;0.52;;
30617;SDS011;17384;51.214;9.202;2022-10-16T11:41:32;0.93;;;0.35;;
30617;SDS011;17384;51.214;9.202;2022-10-16T11:46:49;1.70;;;0.40;;
30617;SDS011;17384;51.214;9.202;2022-10-16T11:49:16;0.32;;;0.32;;
30617;SDS011;17384;51.214;9.202;2022-10-16T11:57:17;1.67;;;0.55;;
30617;SDS011;17384;51.214;9.202;2022-10-16T11:59:46;4.53;;;0.50;;
30617;SDS011;17384;51.214;9.202;2022-10-16T12:02:33;2.42;;;0.40;;
30617;SDS011;17384;51.214;9.202;2022-10-16T12:07:39;2.17;;;0.47;;
30617;SDS011;17384;51.214;9.202;2022-10-16T12:10:11;1.75;;;0.35;;
30617;SDS011;17384;51.214;9.202;2022-10-16T12:12:43;1.75;;;0.57;;
30617;SDS011;17384;51.214;9.202;2022-10-16T12:17:48;0.30;;;0.30;;
30617;SDS011;17384;51.214;9.202;2022-10-16T12:25:20;1.23;;;0.50;;
30617;SDS011;17384;51.214;9.202;2022-10-16T12:27:53;1.20;;;0.40;;
30617;SDS011;17384;51.214;9.202;2022-10-16T12:30:20;1.92;;;0.57;;
30617;SDS011;17384;51.214;9.202;2022-10-16T12:32:52;0.55;;;0.50;;
30617;SDS011;17384;51.214;9.202;2022-10-16T12:35:20;0.43;;;0.40;;
30617;SDS011;17384;51.214;9.202;2022-10-16T12:37:45;1.52;;;0.30;;
30617;SDS011;17384;51.214;9.202;2022-10-16T12:40:29;2.65;;;0.40;;
30617;SDS011;17384;51.214;9.202;2022-10-16T12:42:56;0.47;;;0.40;;
30617;SDS011;17384;51.214;9.202;2022-10-16T12:45:29;1.15;;;0.40;;
30617;SDS011;17384;51.214;9.202;2022-10-16T12:47:56;2.80;;;0.40;;
30617;SDS011;17384;51.214;9.202;2022-10-16T12:50:32;0.57;;;0.28;;
30617;SDS011;17384;51.214;9.202;2022-10-16T12:52:59;3.85;;;0.40;;
30617;SDS011;17384;51.214;9.202;2022-10-16T12:55:25;0.88;;;0.43;;
30617;SDS011;17384;51.214;9.202;2022-10-16T13:08:05;0.40;;;0.30;;
30617;SDS011;17384;51.214;9.202;2022-10-16T13:10:41;0.73;;;0.38;;
30617;SDS011;17384;51.214;9.202;2022-10-16T13:13:18;2.25;;;0.30;;
30617;SDS011;17384;51.214;9.202;2022-10-16T13:18:32;0.40;;;0.40;;
30617;SDS011;17384;51.214;9.202;2022-10-16T13:22:05;2.47;;;0.30;;
30617;SDS011;17384;51.214;9.202;2022-10-16T13:28:58;0.90;;;0.30;;
30617;SDS011;17384;51.214;9.202;2022-10-16T13:31:23;4.53;;;0.40;;
30617;SDS011;17384;51.214;9.202;2022-10-16T13:33:51;1.55;;;0.38;;
30617;SDS011;17384;51.214;9.202;2022-10-16T13:38:45;5.18;;;0.30;;
30617;SDS011;17384;51.214;9.202;2022-10-16T13:41:16;1.07;;;0.40;;
30617;SDS011;17384;51.214;9.202;2022-10-16T13:46:16;2.22;;;0.40;;
30617;SDS011;17384;51.214;9.202;2022-10-16T13:48:42;1.38;;;0.50;;
30617;SDS011;17384;51.214;9.202;2022-10-16T13:51:15;0.40;;;0.40;;
30617;SDS011;17384;51.214;9.202;2022-10-16T13:53:41;0.55;;;0.30;;
30617;SDS011;17384;51.214;9.202;2022-10-16T13:56:10;1.42;;;0.30;;
30617;SDS011;17384;51.214;9.202;2022-10-16T13:58:36;0.80;;;0.50;;
30617;SDS011;17384;51.214;9.202;2022-10-16T14:01:02;0.70;;;0.50;;
30617;SDS011;17384;51.214;9.202;2022-10-16T14:03:30;0.20;;;0.20;;
30617;SDS011;17384;51.214;9.202;2022-10-16T14:06:00;0.60;;;0.40;;
30617;SDS011;17384;51.214;9.202;2022-10-16T14:08:27;1.25;;;0.45;;
30617;SDS011;17384;51.214;9.202;2022-10-16T14:10:57;2.05;;;0.50;;
30617;SDS011;17384;51.214;9.202;2022-10-16T14:13:34;0.85;;;0.38;;
30617;SDS011;17384;51.214;9.202;2022-10-16T14:16:05;3.42;;;0.22;;
30617;SDS011;17384;51.214;9.202;2022-10-16T14:18:31;0.40;;;0.25;;
30617;SDS011;17384;51.214;9.202;2022-10-16T14:21:02;0.30;;;0.30;;
30617;SDS011;17384;51.214;9.202;2022-10-16T14:23:29;2.05;;;0.30;;
30617;SDS011;17384;51.214;9.202;2022-10-16T14:28:38;1.60;;;0.30;;
30617;SDS011;17384;51.214;9.202;2022-10-16T14:33:44;0.77;;;0.50;;
30617;SDS011;17384;51.214;9.202;2022-10-16T14:38:35;7.30;;;0.30;;
30617;SDS011;17384;51.214;9.202;2022-10-16T14:41:01;3.75;;;0.40;;
30617;SDS011;17384;51.214;9.202;2022-10-16T14:43:32;1.73;;;0.50;;
30617;SDS011;17384;51.214;9.202;2022-10-16T14:45:58;1.58;;;0.50;;
30617;SDS011;17384;51.214;9.202;2022-10-16T14:48:23;1.08;;;0.40;;
30617;SDS011;17384;51.214;9.202;2022-10-16T14:50:52;1.45;;;0.40;;
30617;SDS011;17384;51.214;9.202;2022-10-16T14:53:18;2.08;;;0.52;;
30617;SDS011;17384;51.214;9.202;2022-10-16T14:55:43;0.63;;;0.63;;
30617;SDS011;17384;51.214;9.202;2022-10-16T14:58:16;4.00;;;0.32;;
30617;SDS011;17384;51.214;9.202;2022-10-16T15:03:07;3.30;;;0.67;;
30617;SDS011;17384;51.214;9.202;2022-10-16T15:05:33;1.50;;;0.60;;
30617;SDS011;17384;51.214;9.202;2022-10-16T15:07:58;1.25;;;0.73;;
30617;SDS011;17384;51.214;9.202;2022-10-16T15:10:24;6.20;;;0.63;;
30617;SDS011;17384;51.214;9.202;2022-10-16T15:12:51;2.70;;;0.70;;
30617;SDS011;17384;51.214;9.202;2022-10-16T15:15:24;0.55;;;0.38;;
30617;SDS011;17384;51.214;9.202;2022-10-16T15:17:52;0.45;;;0.45;;
30617;SDS011;17384;51.214;9.202;2022-10-16T15:20:20;0.95;;;0.30;;
30617;SDS011;17384;51.214;9.202;2022-10-16T15:22:45;1.03;;;0.50;;
30617;SDS011;17384;51.214;9.202;2022-10-16T15:25:31;4.10;;;0.40;;
30617;SDS011;17384;51.214;9.202;2022-10-16T15:27:57;2.13;;;0.50;;
30617;SDS011;17384;51.214;9.202;2022-10-16T15:30:23;1.33;;;0.40;;
30617;SDS011;17384;51.214;9.202;2022-10-16T15:32:48;1.77;;;0.40;;
30617;SDS011;17384;51.214;9.202;2022-10-16T15:35:14;0.90;;;0.40;;
30617;SDS011;17384;51.214;9.202;2022-10-16T15:37:40;4.05;;;0.60;;
30617;SDS011;17384;51.214;9.202;2022-10-16T15:40:05;1.20;;;0.40;;
30617;SDS011;17384;51.214;9.202;2022-10-16T15:42:31;0.40;;;0.40;;
30617;SDS011;17384;51.214;9.202;2022-10-16T15:44:56;1.40;;;0.60;;
30617;SDS011;17384;51.214;9.202;2022-10-16T15:47:22;4.30;;;0.50;;
30617;SDS011;17384;51.214;9.202;2022-10-16T15:49:47;0.90;;;0.60;;
30617;SDS011;17384;51.214;9.202;2022-10-16T15:52:13;0.50;;;0.50;;
30617;SDS011;17384;51.214;9.202;2022-10-16T15:54:41;5.95;;;2.30;;
30617;SDS011;17384;51.214;9.202;2022-10-16T15:57:07;5.28;;;1.67;;
30617;SDS011;17384;51.214;9.202;2022-10-16T15:59:32;1.05;;;0.82;;
30617;SDS011;17384;51.214;9.202;2022-10-16T16:01:57;5.78;;;0.77;;
30617;SDS011;17384;51.214;9.202;2022-10-16T16:04:23;3.15;;;0.98;;
30617;SDS011;17384;51.214;9.202;2022-10-16T16:06:49;1.02;;;0.57;;
30617;SDS011;17384;51.214;9.202;2022-10-16T16:09:14;1.02;;;0.80;;
30617;SDS011;17384;51.214;9.202;2022-10-16T16:11:40;1.85;;;0.73;;
30617;SDS011;17384;51.214;9.202;2022-10-16T16:14:06;2.25;;;0.90;;
30617;SDS011;17384;51.214;9.202;2022-10-16T16:16:31;28.83;;;19.58;;
30617;SDS011;17384;51.214;9.202;2022-10-16T16:19:02;2.20;;;0.70;;
30617;SDS011;17384;51.214;9.202;2022-10-16T16:21:28;1.85;;;0.73;;
30617;SDS011;17384;51.214;9.202;2022-10-16T16:23:54;4.78;;;0.52;;
30617;SDS011;17384;51.214;9.202;2022-10-16T16:26:29;3.70;;;1.40;;
30617;SDS011;17384;51.214;9.202;2022-10-16T16:29:01;3.60;;;0.90;;
30617;SDS011;17384;51.214;9.202;2022-10-16T16:31:27;1.55;;;0.40;;
30617;SDS011;17384;51.214;9.202;2022-10-16T16:33:53;8.63;;;0.70;;
30617;SDS011;17384;51.214;9.202;2022-10-16T16:36:19;1.48;;;0.70;;
30617;SDS011;17384;51.214;9.202;2022-10-16T16:38:45;2.20;;;1.08;;
30617;SDS011;17384;51.214;9.202;2022-10-16T16:41:14;2.78;;;0.77;;
30617;SDS011;17384;51.214;9.202;2022-10-16T16:43:39;1.98;;;0.93;;
30617;SDS011;17384;51.214;9.202;2022-10-16T16:46:05;1.58;;;0.63;;
30617;SDS011;17384;51.214;9.202;2022-10-16T16:48:31;7.90;;;1.20;;
30617;SDS011;17384;51.214;9.202;2022-10-16T16:50:56;4.32;;;0.93;;
30617;SDS011;17384;51.214;9.202;2022-10-16T16:53:21;1.70;;;0.40;;
30617;SDS011;17384;51.214;9.202;2022-10-16T16:55:48;2.90;;;0.63;;
30617;SDS011;17384;51.214;9.202;2022-10-16T16:58:13;2.78;;;0.88;;